sensor_id;sensor_type;location;lat;lon;timestamp;pressure;altitude;pressure_sealevel;temperature;humidity
17855;BME280;9053;53.358;6.382;2022-12-29T00:01:59;99558.25;;;10.77;100.00
17855;BME280;9053;53.358;6.382;2022-12-29T00:04:31;99559.13;;;10.77;100.00
17855;BME280;9053;53.358;6.382;2022-12-29T00:07:01;99563.50;;;10.77;100.00
17855;BME280;9053;53.358;6.382;2022-12-29T00:09:31;99549.47;;;10.76;100.00
17855;BME280;9053;53.358;6.382;2022-12-29T00:12:03;99562.63;;;10.76;100.00
17855;BME280;9053;53.358;6.382;2022-12-29T00:14:33;99555.63;;;10.78;100.00
17855;BME280;9053;53.358;6.382;2022-12-29T00:17:15;99547.72;;;10.78;100.00
17855;BME280;9053;53.358;6.382;2022-12-29T00:19:48;99552.13;;;10.79;100.00
17855;BME280;9053;53.358;6.382;2022-12-29T00:22:30;99550.38;;;10.80;100.00
17855;BME280;9053;53.358;6.382;2022-12-29T00:25:13;99552.97;;;10.78;100.00
17855;BME280;9053;53.358;6.382;2022-12-29T00:27:55;99560.94;;;10.81;100.00
17855;BME280;9053;53.358;6.382;2022-12-29T00:30:37;99552.16;;;10.82;100.00
17855;BME280;9053;53.358;6.382;2022-12-29T00:33:22;99535.53;;;10.83;100.00
17855;BME280;9053;53.358;6.382;2022-12-29T00:36:13;99537.28;;;10.85;100.00
17855;BME280;9053;53.358;6.382;2022-12-29T00:38:47;99525.91;;;10.84;100.00
17855;BME280;9053;53.358;6.382;2022-12-29T00:41:31;99535.56;;;10.87;100.00
17855;BME280;9053;53.358;6.382;2022-12-29T00:44:14;99537.31;;;10.88;100.00
17855;BME280;9053;53.358;6.382;2022-12-29T00:46:44;99542.63;;;10.91;100.00
17855;BME280;9053;53.358;6.382;2022-12-29T00:49:15;99523.34;;;10.92;100.00
17855;BME280;9053;53.358;6.382;2022-12-29T00:52:02;99527.75;;;10.93;100.00
17855;BME280;9053;53.358;6.382;2022-12-29T00:54:34;99499.69;;;10.93;100.00
17855;BME280;9053;53.358;6.382;2022-12-29T00:57:06;99529.50;;;10.92;100.00
17855;BME280;9053;53.358;6.382;2022-12-29T00:59:36;99528.69;;;10.96;100.00
17855;BME280;9053;53.358;6.382;2022-12-29T01:02:07;99533.97;;;10.99;100.00
17855;BME280;9053;53.358;6.382;2022-12-29T01:04:37;99517.31;;;11.00;100.00
17855;BME280;9053;53.358;6.382;2022-12-29T01:07:10;99526.97;;;11.03;100.00
17855;BME280;9053;53.358;6.382;2022-12-29T01:09:39;99519.09;;;11.03;100.00
17855;BME280;9053;53.358;6.382;2022-12-29T01:12:22;99535.78;;;11.05;100.00
17855;BME280;9053;53.358;6.382;2022-12-29T01:15:05;99524.38;;;11.06;100.00
17855;BME280;9053;53.358;6.382;2022-12-29T01:17:35;99518.25;;;11.07;100.00
17855;BME280;9053;53.358;6.382;2022-12-29T01:20:06;99528.78;;;11.07;100.00
17855;BME280;9053;53.358;6.382;2022-12-29T01:22:39;99516.50;;;11.08;100.00
17855;BME280;9053;53.358;6.382;2022-12-29T01:25:10;99524.41;;;11.08;100.00
17855;BME280;9053;53.358;6.382;2022-12-29T01:27:40;99511.28;;;11.09;100.00
17855;BME280;9053;53.358;6.382;2022-12-29T01:30:10;99513.91;;;11.09;100.00
17855;BME280;9053;53.358;6.382;2022-12-29T01:32:40;99520.03;;;11.11;100.00
17855;BME280;9053;53.358;6.382;2022-12-29T01:35:10;99514.78;;;11.11;100.00
17855;BME280;9053;53.358;6.382;2022-12-29T01:37:42;99509.53;;;11.13;100.00
17855;BME280;9053;53.358;6.382;2022-12-29T01:40:12;99514.84;;;11.14;100.00
17855;BME280;9053;53.358;6.382;2022-12-29T01:42:43;99504.28;;;11.13;100.00
17855;BME280;9053;53.358;6.382;2022-12-29T01:45:14;99505.19;;;11.15;100.00
17855;BME280;9053;53.358;6.382;2022-12-29T01:47:47;99497.25;;;11.13;100.00
17855;BME280;9053;53.358;6.382;2022-12-29T01:50:20;99489.41;;;11.15;100.00
17855;BME280;9053;53.358;6.382;2022-12-29T01:52:56;99496.41;;;11.14;100.00
17855;BME280;9053;53.358;6.382;2022-12-29T01:55:29;99497.28;;;11.15;100.00
17855;BME280;9053;53.358;6.382;2022-12-29T01:58:04;99490.28;;;11.15;100.00
17855;BME280;9053;53.358;6.382;2022-12-29T02:00:34;99492.03;;;11.15;100.00
17855;BME280;9053;53.358;6.382;2022-12-29T02:03:05;99494.66;;;11.15;100.00
17855;BME280;9053;53.358;6.382;2022-12-29T02:05:40;99488.50;;;11.13;100.00
17855;BME280;9053;53.358;6.382;2022-12-29T02:08:14;99489.34;;;11.10;100.00
17855;BME280;9053;53.358;6.382;2022-12-29T02:10:44;99482.31;;;11.11;100.00
17855;BME280;9053;53.358;6.382;2022-12-29T02:13:15;99474.44;;;11.09;100.00
17855;BME280;9053;53.358;6.382;2022-12-29T02:15:52;99477.06;;;11.09;100.00
17855;BME280;9053;53.358;6.382;2022-12-29T02:18:34;99462.13;;;11.07;100.00
17855;BME280;9053;53.358;6.382;2022-12-29T02:25:00;99453.34;;;11.06;100.00
17855;BME280;9053;53.358;6.382;2022-12-29T02:27:50;99462.13;;;11.05;100.00
17855;BME280;9053;53.358;6.382;2022-12-29T02:30:43;99469.09;;;11.03;100.00
17855;BME280;9053;53.358;6.382;2022-12-29T02:33:22;99478.75;;;11.02;100.00
17855;BME280;9053;53.358;6.382;2022-12-29T02:35:59;99484.84;;;11.00;100.00
17855;BME280;9053;53.358;6.382;2022-12-29T02:38:42;99470.81;;;10.98;100.00
17855;BME280;9053;53.358;6.382;2022-12-29T02:41:21;99464.63;;;10.91;100.00
17855;BME280;9053;53.358;6.382;2022-12-29T02:43:56;99456.66;;;10.83;100.00
17855;BME280;9053;53.358;6.382;2022-12-29T02:46:35;99446.88;;;10.73;100.00
17855;BME280;9053;53.358;6.382;2022-12-29T02:49:10;99458.09;;;10.57;100.00
17855;BME280;9053;53.358;6.382;2022-12-29T02:51:50;99445.69;;;10.44;100.00
17855;BME280;9053;53.358;6.382;2022-12-29T02:54:21;99449.91;;;10.31;100.00
17855;BME280;9053;53.358;6.382;2022-12-29T02:57:05;99443.63;;;10.23;100.00
17855;BME280;9053;53.358;6.382;2022-12-29T02:59:35;99428.66;;;10.15;100.00
17855;BME280;9053;53.358;6.382;2022-12-29T03:02:23;99444.34;;;10.11;100.00
17855;BME280;9053;53.358;6.382;2022-12-29T03:08:06;99411.75;;;9.96;100.00
17855;BME280;9053;53.358;6.382;2022-12-29T03:10:46;99424.88;;;9.95;100.00
17855;BME280;9053;53.358;6.382;2022-12-29T03:13:24;99421.38;;;9.94;100.00
17855;BME280;9053;53.358;6.382;2022-12-29T03:16:14;99424.88;;;9.93;100.00
17855;BME280;9053;53.358;6.382;2022-12-29T03:18:56;99430.13;;;9.95;100.00
17855;BME280;9053;53.358;6.382;2022-12-29T03:21:32;99410.06;;;9.99;100.00
17855;BME280;9053;53.358;6.382;2022-12-29T03:24:17;99410.13;;;10.05;100.00
17855;BME280;9053;53.358;6.382;2022-12-29T03:26:51;99399.75;;;10.14;100.00
17855;BME280;9053;53.358;6.382;2022-12-29T03:29:22;99419.06;;;10.19;100.00
17855;BME280;9053;53.358;6.382;2022-12-29T03:31:53;99415.63;;;10.23;100.00
17855;BME280;9053;53.358;6.382;2022-12-29T03:34:27;99435.00;;;10.28;100.00
17855;BME280;9053;53.358;6.382;2022-12-29T03:37:01;99424.50;;;10.31;100.00
17855;BME280;9053;53.358;6.382;2022-12-29T03:39:33;99418.38;;;10.31;100.00
17855;BME280;9053;53.358;6.382;2022-12-29T03:42:05;99425.34;;;10.30;100.00
17855;BME280;9053;53.358;6.382;2022-12-29T03:44:37;99435.00;;;10.33;100.00
17855;BME280;9053;53.358;6.382;2022-12-29T03:47:09;99427.13;;;10.31;100.00
17855;BME280;9053;53.358;6.382;2022-12-29T03:49:42;99414.84;;;10.30;100.00
17855;BME280;9053;53.358;6.382;2022-12-29T03:52:12;99428.84;;;10.29;100.00
17855;BME280;9053;53.358;6.382;2022-12-29T03:54:42;99438.50;;;10.30;100.00
17855;BME280;9053;53.358;6.382;2022-12-29T03:57:12;99429.72;;;10.28;100.00
17855;BME280;9053;53.358;6.382;2022-12-29T03:59:42;99432.34;;;10.28;100.00
17855;BME280;9053;53.358;6.382;2022-12-29T04:02:12;99429.66;;;10.27;100.00
17855;BME280;9053;53.358;6.382;2022-12-29T04:04:46;99421.75;;;10.25;100.00
17855;BME280;9053;53.358;6.382;2022-12-29T04:07:16;99431.38;;;10.25;100.00
17855;BME280;9053;53.358;6.382;2022-12-29T04:09:46;99429.63;;;10.24;100.00
17855;BME280;9053;53.358;6.382;2022-12-29T04:12:15;99432.22;;;10.22;100.00
17855;BME280;9053;53.358;6.382;2022-12-29T04:14:45;99427.84;;;10.21;100.00
17855;BME280;9053;53.358;6.382;2022-12-29T04:17:15;99426.06;;;10.20;100.00
17855;BME280;9053;53.358;6.382;2022-12-29T04:19:48;99436.53;;;10.17;100.00
17855;BME280;9053;53.358;6.382;2022-12-29T04:22:18;99434.72;;;10.13;100.00
17855;BME280;9053;53.358;6.382;2022-12-29T04:24:47;99439.97;;;10.13;100.00
17855;BME280;9053;53.358;6.382;2022-12-29T04:27:17;99446.97;;;10.12;100.00
17855;BME280;9053;53.358;6.382;2022-12-29T04:29:47;99452.25;;;10.11;100.00
17855;BME280;9053;53.358;6.382;2022-12-29T04:32:17;99452.25;;;10.11;100.00
17855;BME280;9053;53.358;6.382;2022-12-29T04:34:49;99453.09;;;10.08;100.00
17855;BME280;9053;53.358;6.382;2022-12-29T04:37:19;99452.19;;;10.08;100.00
17855;BME280;9053;53.358;6.382;2022-12-29T04:39:48;99454.75;;;10.05;100.00
17855;BME280;9053;53.358;6.382;2022-12-29T04:42:18;99444.25;;;10.05;100.00
17855;BME280;9053;53.358;6.382;2022-12-29T04:44:48;99455.66;;;10.07;100.00
17855;BME280;9053;53.358;6.382;2022-12-29T04:47:18;99453.00;;;10.04;100.00
17855;BME280;9053;53.358;6.382;2022-12-29T04:49:50;99460.03;;;10.05;100.00
17855;BME280;9053;53.358;6.382;2022-12-29T04:52:20;99462.66;;;10.05;100.00
17855;BME280;9053;53.358;6.382;2022-12-29T04:54:49;99461.72;;;10.03;100.00
17855;BME280;9053;53.358;6.382;2022-12-29T04:57:19;99462.59;;;10.02;100.00
17855;BME280;9053;53.358;6.382;2022-12-29T04:59:49;99458.16;;;9.97;100.00
17855;BME280;9053;53.358;6.382;2022-12-29T05:02:19;99462.50;;;9.94;100.00
17855;BME280;9053;53.358;6.382;2022-12-29T05:04:51;99458.97;;;9.90;100.00
17855;BME280;9053;53.358;6.382;2022-12-29T05:07:21;99449.31;;;9.89;100.00
17855;BME280;9053;53.358;6.382;2022-12-29T05:09:51;99458.91;;;9.87;100.00
17855;BME280;9053;53.358;6.382;2022-12-29T05:12:21;99462.34;;;9.85;100.00
17855;BME280;9053;53.358;6.382;2022-12-29T05:14:51;99453.56;;;9.81;100.00
17855;BME280;9053;53.358;6.382;2022-12-29T05:17:21;99459.69;;;9.82;100.00
17855;BME280;9053;53.358;6.382;2022-12-29T05:19:53;99464.09;;;9.84;100.00
17855;BME280;9053;53.358;6.382;2022-12-29T05:22:23;99455.31;;;9.81;100.00
17855;BME280;9053;53.358;6.382;2022-12-29T05:24:52;99455.28;;;9.79;100.00
17855;BME280;9053;53.358;6.382;2022-12-29T05:27:22;99448.28;;;9.78;100.00
17855;BME280;9053;53.358;6.382;2022-12-29T05:29:52;99450.91;;;9.78;100.00
17855;BME280;9053;53.358;6.382;2022-12-29T05:32:22;99463.13;;;9.78;100.00
17855;BME280;9053;53.358;6.382;2022-12-29T05:34:54;99457.91;;;9.79;100.00
17855;BME280;9053;53.358;6.382;2022-12-29T05:37:24;99460.50;;;9.76;100.00
17855;BME280;9053;53.358;6.382;2022-12-29T05:39:54;99453.47;;;9.75;100.00
17855;BME280;9053;53.358;6.382;2022-12-29T05:42:25;99457.84;;;9.73;100.00
17855;BME280;9053;53.358;6.382;2022-12-29T05:44:55;99454.31;;;9.72;100.00
17855;BME280;9053;53.358;6.382;2022-12-29T05:47:25;99466.50;;;9.69;100.00
17855;BME280;9053;53.358;6.382;2022-12-29T05:49:58;99463.88;;;9.69;100.00
17855;BME280;9053;53.358;6.382;2022-12-29T05:52:27;99460.34;;;9.67;100.00
17855;BME280;9053;53.358;6.382;2022-12-29T05:54:57;99476.09;;;9.67;100.00
17855;BME280;9053;53.358;6.382;2022-12-29T05:57:27;99467.31;;;9.65;100.00
17855;BME280;9053;53.358;6.382;2022-12-29T05:59:57;99466.44;;;9.63;100.00
17855;BME280;9053;53.358;6.382;2022-12-29T06:02:26;99453.31;;;9.63;100.00
17855;BME280;9053;53.358;6.382;2022-12-29T06:04:59;99472.56;;;9.65;100.00
17855;BME280;9053;53.358;6.382;2022-12-29T06:07:29;99468.19;;;9.64;100.00
17855;BME280;9053;53.358;6.382;2022-12-29T06:09:59;99466.44;;;9.63;100.00
17855;BME280;9053;53.358;6.382;2022-12-29T06:12:28;99460.31;;;9.64;100.00
17855;BME280;9053;53.358;6.382;2022-12-29T06:14:58;99475.22;;;9.66;100.00
17855;BME280;9053;53.358;6.382;2022-12-29T06:17:28;99463.84;;;9.67;100.00
17855;BME280;9053;53.358;6.382;2022-12-29T06:20:01;99477.03;;;9.72;100.00
17855;BME280;9053;53.358;6.382;2022-12-29T06:22:31;99481.47;;;9.74;100.00
17855;BME280;9053;53.358;6.382;2022-12-29T06:25:01;99488.50;;;9.77;100.00
17855;BME280;9053;53.358;6.382;2022-12-29T06:27:32;99481.53;;;9.79;100.00
17855;BME280;9053;53.358;6.382;2022-12-29T06:30:03;99462.31;;;9.82;100.00
17855;BME280;9053;53.358;6.382;2022-12-29T06:32:33;99460.56;;;9.81;100.00
17855;BME280;9053;53.358;6.382;2022-12-29T06:35:06;99469.31;;;9.81;100.00
17855;BME280;9053;53.358;6.382;2022-12-29T06:37:35;99477.16;;;9.80;100.00
17855;BME280;9053;53.358;6.382;2022-12-29T06:40:06;99482.41;;;9.78;100.00
17855;BME280;9053;53.358;6.382;2022-12-29T06:42:36;99460.50;;;9.78;100.00
17855;BME280;9053;53.358;6.382;2022-12-29T06:45:07;99469.22;;;9.75;100.00
17855;BME280;9053;53.358;6.382;2022-12-29T06:47:36;99477.91;;;9.72;100.00
17855;BME280;9053;53.358;6.382;2022-12-29T06:50:09;99474.44;;;9.72;100.00
17855;BME280;9053;53.358;6.382;2022-12-29T06:52:39;99477.03;;;9.72;100.00
17855;BME280;9053;53.358;6.382;2022-12-29T06:55:09;99470.88;;;9.70;100.00
17855;BME280;9053;53.358;6.382;2022-12-29T06:57:39;99479.63;;;9.69;100.00
17855;BME280;9053;53.358;6.382;2022-12-29T07:00:09;99486.59;;;9.67;100.00
17855;BME280;9053;53.358;6.382;2022-12-29T07:02:46;99485.69;;;9.65;100.00
17855;BME280;9053;53.358;6.382;2022-12-29T07:05:19;99492.69;;;9.63;100.00
17855;BME280;9053;53.358;6.382;2022-12-29T07:07:48;99498.75;;;9.62;100.00
17855;BME280;9053;53.358;6.382;2022-12-29T07:10:21;99494.34;;;9.59;100.00
17855;BME280;9053;53.358;6.382;2022-12-29T07:13:01;99495.22;;;9.58;100.00
17855;BME280;9053;53.358;6.382;2022-12-29T07:15:33;99497.81;;;9.55;100.00
17855;BME280;9053;53.358;6.382;2022-12-29T07:18:32;99500.44;;;9.55;100.00
17855;BME280;9053;53.358;6.382;2022-12-29T07:21:29;99490.81;;;9.56;100.00
17855;BME280;9053;53.358;6.382;2022-12-29T07:23:59;99492.56;;;9.57;100.00
17855;BME280;9053;53.358;6.382;2022-12-29T07:26:29;99508.34;;;9.58;100.00
17855;BME280;9053;53.358;6.382;2022-12-29T07:29:02;99508.34;;;9.60;100.00
17855;BME280;9053;53.358;6.382;2022-12-29T07:31:32;99512.75;;;9.61;100.00
17855;BME280;9053;53.358;6.382;2022-12-29T07:34:02;99511.00;;;9.61;100.00
17855;BME280;9053;53.358;6.382;2022-12-29T07:36:34;99518.06;;;9.64;100.00
17855;BME280;9053;53.358;6.382;2022-12-29T07:39:04;99518.06;;;9.64;100.00
17855;BME280;9053;53.358;6.382;2022-12-29T07:41:34;99521.59;;;9.66;100.00
17855;BME280;9053;53.358;6.382;2022-12-29T07:44:08;99533.84;;;9.67;100.00
17855;BME280;9053;53.358;6.382;2022-12-29T07:46:38;99526.88;;;9.69;100.00
17855;BME280;9053;53.358;6.382;2022-12-29T07:49:23;99518.13;;;9.70;100.00
17855;BME280;9053;53.358;6.382;2022-12-29T07:52:07;99526.00;;;9.70;100.00
17855;BME280;9053;53.358;6.382;2022-12-29T07:54:38;99523.47;;;9.73;100.00
17855;BME280;9053;53.358;6.382;2022-12-29T07:57:14;99530.47;;;9.74;100.00
17855;BME280;9053;53.358;6.382;2022-12-29T07:59:44;99532.22;;;9.75;100.00
17855;BME280;9053;53.358;6.382;2022-12-29T08:02:14;99529.59;;;9.73;100.00
17855;BME280;9053;53.358;6.382;2022-12-29T08:04:44;99527.91;;;9.79;100.00
17855;BME280;9053;53.358;6.382;2022-12-29T08:07:16;99542.84;;;9.81;100.00
17855;BME280;9053;53.358;6.382;2022-12-29T08:09:46;99527.91;;;9.80;100.00
17855;BME280;9053;53.358;6.382;2022-12-29T08:12:16;99531.47;;;9.82;100.00
17855;BME280;9053;53.358;6.382;2022-12-29T08:14:46;99535.88;;;9.83;100.00
17855;BME280;9053;53.358;6.382;2022-12-29T08:17:16;99539.38;;;9.84;100.00
17855;BME280;9053;53.358;6.382;2022-12-29T08:19:45;99539.41;;;9.85;100.00
17855;BME280;9053;53.358;6.382;2022-12-29T08:22:18;99540.28;;;9.86;100.00
17855;BME280;9053;53.358;6.382;2022-12-29T08:24:47;99533.25;;;9.85;100.00
17855;BME280;9053;53.358;6.382;2022-12-29T08:27:18;99535.88;;;9.85;100.00
17855;BME280;9053;53.358;6.382;2022-12-29T08:29:48;99537.66;;;9.86;100.00
17855;BME280;9053;53.358;6.382;2022-12-29T08:32:19;99537.66;;;9.87;100.00
17855;BME280;9053;53.358;6.382;2022-12-29T08:34:48;99542.09;;;9.88;100.00
17855;BME280;9053;53.358;6.382;2022-12-29T08:37:21;99543.84;;;9.89;100.00
17855;BME280;9053;53.358;6.382;2022-12-29T08:39:56;99551.75;;;9.91;100.00
17855;BME280;9053;53.358;6.382;2022-12-29T08:42:30;99547.38;;;9.91;100.00
17855;BME280;9053;53.358;6.382;2022-12-29T08:45:00;99548.28;;;9.95;100.00
17855;BME280;9053;53.358;6.382;2022-12-29T08:47:30;99530.81;;;9.95;100.00
17855;BME280;9053;53.358;6.382;2022-12-29T08:50:00;99536.03;;;9.94;100.00
17855;BME280;9053;53.358;6.382;2022-12-29T08:52:32;99542.19;;;9.96;100.00
17855;BME280;9053;53.358;6.382;2022-12-29T08:55:02;99531.69;;;9.97;100.00
17855;BME280;9053;53.358;6.382;2022-12-29T08:57:32;99546.56;;;9.95;100.00
17855;BME280;9053;53.358;6.382;2022-12-29T09:00:03;99533.44;;;9.95;100.00
17855;BME280;9053;53.358;6.382;2022-12-29T09:02:33;99531.69;;;9.96;100.00
17855;BME280;9053;53.358;6.382;2022-12-29T09:05:04;99533.44;;;9.95;100.00
17855;BME280;9053;53.358;6.382;2022-12-29T09:07:37;99531.69;;;9.96;100.00
17855;BME280;9053;53.358;6.382;2022-12-29T09:10:10;99540.44;;;9.96;100.00
17855;BME280;9053;53.358;6.382;2022-12-29T09:12:41;99529.94;;;9.96;100.00
17855;BME280;9053;53.358;6.382;2022-12-29T09:15:11;99544.81;;;9.97;100.00
17855;BME280;9053;53.358;6.382;2022-12-29T09:17:42;99539.56;;;9.97;100.00
17855;BME280;9053;53.358;6.382;2022-12-29T09:20:14;99547.50;;;9.99;100.00
17855;BME280;9053;53.358;6.382;2022-12-29T09:22:47;99546.63;;;9.99;100.00
17855;BME280;9053;53.358;6.382;2022-12-29T09:25:18;99555.38;;;9.99;100.00
17855;BME280;9053;53.358;6.382;2022-12-29T09:27:51;99557.97;;;9.97;100.00
17855;BME280;9053;53.358;6.382;2022-12-29T09:30:22;99556.22;;;9.96;100.00
17855;BME280;9053;53.358;6.382;2022-12-29T09:32:52;99572.84;;;9.95;100.00
17855;BME280;9053;53.358;6.382;2022-12-29T09:35:22;99564.03;;;9.93;100.00
17855;BME280;9053;53.358;6.382;2022-12-29T09:37:55;99571.88;;;9.92;100.00
17855;BME280;9053;53.358;6.382;2022-12-29T09:40:28;99575.38;;;9.91;100.00
17855;BME280;9053;53.358;6.382;2022-12-29T09:43:29;99579.75;;;9.90;100.00
17855;BME280;9053;53.358;6.382;2022-12-29T09:46:08;99580.59;;;9.88;100.00
17855;BME280;9053;53.358;6.382;2022-12-29T09:48:45;99569.19;;;9.87;100.00
17855;BME280;9053;53.358;6.382;2022-12-29T09:51:21;99567.38;;;9.83;100.00
17855;BME280;9053;53.358;6.382;2022-12-29T09:53:58;99577.81;;;9.79;100.00
17855;BME280;9053;53.358;6.382;2022-12-29T09:56:29;99582.97;;;9.74;100.00
17855;BME280;9053;53.358;6.382;2022-12-29T09:59:04;99589.00;;;9.70;100.00
17855;BME280;9053;53.358;6.382;2022-12-29T10:01:42;99588.97;;;9.67;100.00
17855;BME280;9053;53.358;6.382;2022-12-29T10:04:14;99592.44;;;9.64;100.00
17855;BME280;9053;53.358;6.382;2022-12-29T10:06:49;99587.13;;;9.61;100.00
17855;BME280;9053;53.358;6.382;2022-12-29T10:09:49;99599.38;;;9.61;100.00
17855;BME280;9053;53.358;6.382;2022-12-29T10:12:27;99591.44;;;9.58;100.00
17855;BME280;9053;53.358;6.382;2022-12-29T10:15:05;99591.41;;;9.56;100.00
17855;BME280;9053;53.358;6.382;2022-12-29T10:17:44;99606.25;;;9.54;100.00
17855;BME280;9053;53.358;6.382;2022-12-29T10:20:36;99612.31;;;9.51;100.00
17855;BME280;9053;53.358;6.382;2022-12-29T10:23:28;99613.19;;;9.52;100.00
17855;BME280;9053;53.358;6.382;2022-12-29T10:26:02;99618.44;;;9.52;100.00
17855;BME280;9053;53.358;6.382;2022-12-29T10:28:35;99640.34;;;9.52;100.00
17855;BME280;9053;53.358;6.382;2022-12-29T10:31:12;99669.13;;;9.49;100.00
17855;BME280;9053;53.358;6.382;2022-12-29T10:33:43;99664.75;;;9.48;100.00
17855;BME280;9053;53.358;6.382;2022-12-29T10:36:16;99659.47;;;9.47;100.00
17855;BME280;9053;53.358;6.382;2022-12-29T10:38:53;99655.91;;;9.43;100.00
17855;BME280;9053;53.358;6.382;2022-12-29T10:41:36;99675.13;;;9.42;100.00
17855;BME280;9053;53.358;6.382;2022-12-29T10:44:10;99673.31;;;9.38;100.00
17855;BME280;9053;53.358;6.382;2022-12-29T10:46:43;99681.19;;;9.38;100.00
17855;BME280;9053;53.358;6.382;2022-12-29T10:49:17;99681.19;;;9.38;100.00
17855;BME280;9053;53.358;6.382;2022-12-29T10:51:48;99680.25;;;9.36;100.00
17855;BME280;9053;53.358;6.382;2022-12-29T10:54:23;99700.38;;;9.37;100.00
17855;BME280;9053;53.358;6.382;2022-12-29T10:57:01;99699.56;;;9.40;100.00
17855;BME280;9053;53.358;6.382;2022-12-29T10:59:36;99706.59;;;9.42;100.00
17855;BME280;9053;53.358;6.382;2022-12-29T11:02:22;99716.28;;;9.45;100.00
17855;BME280;9053;53.358;6.382;2022-12-29T11:05:00;99711.06;;;9.46;100.00
17855;BME280;9053;53.358;6.382;2022-12-29T11:07:32;99721.63;;;9.48;100.00
17855;BME280;9053;53.358;6.382;2022-12-29T11:10:17;99731.34;;;9.53;100.00
17855;BME280;9053;53.358;6.382;2022-12-29T11:13:00;99734.06;;;9.60;100.00
17855;BME280;9053;53.358;6.382;2022-12-29T11:15:38;99740.25;;;9.62;100.00
17855;BME280;9053;53.358;6.382;2022-12-29T11:18:21;99736.78;;;9.64;100.00
17855;BME280;9053;53.358;6.382;2022-12-29T11:20:53;99739.50;;;9.69;100.00
17855;BME280;9053;53.358;6.382;2022-12-29T11:23:30;99745.75;;;9.74;100.00
17855;BME280;9053;53.358;6.382;2022-12-29T11:26:13;99745.78;;;9.77;100.00
17855;BME280;9053;53.358;6.382;2022-12-29T11:28:47;99751.09;;;9.80;100.00
17855;BME280;9053;53.358;6.382;2022-12-29T11:31:40;99770.50;;;9.85;100.00
17855;BME280;9053;53.358;6.382;2022-12-29T11:34:17;99760.84;;;9.86;100.00
17855;BME280;9053;53.358;6.382;2022-12-29T11:36:48;99777.50;;;9.86;100.00
17855;BME280;9053;53.358;6.382;2022-12-29T11:39:37;99781.03;;;9.88;100.00
17855;BME280;9053;53.358;6.382;2022-12-29T11:42:14;99788.97;;;9.91;100.00
17855;BME280;9053;53.358;6.382;2022-12-29T11:44:49;99790.78;;;9.94;100.00
17855;BME280;9053;53.358;6.382;2022-12-29T11:47:25;99798.69;;;9.95;100.00
17855;BME280;9053;53.358;6.382;2022-12-29T11:49:58;99795.97;;;9.92;100.00
17855;BME280;9053;53.358;6.382;2022-12-29T11:52:31;99794.22;;;9.91;100.00
17855;BME280;9053;53.358;6.382;2022-12-29T11:55:05;99798.56;;;9.89;100.00
17855;BME280;9053;53.358;6.382;2022-12-29T11:57:36;99810.84;;;9.90;100.00
17855;BME280;9053;53.358;6.382;2022-12-29T12:00:15;99811.69;;;9.89;100.00
17855;BME280;9053;53.358;6.382;2022-12-29T12:02:51;99815.19;;;9.90;100.00
17855;BME280;9053;53.358;6.382;2022-12-29T12:05:29;99833.56;;;9.88;100.00
17855;BME280;9053;53.358;6.382;2022-12-29T12:08:07;99836.19;;;9.90;100.00
17855;BME280;9053;53.358;6.382;2022-12-29T12:10:48;99840.63;;;9.92;100.00
17855;BME280;9053;53.358;6.382;2022-12-29T12:13:23;99850.31;;;9.93;100.00
17855;BME280;9053;53.358;6.382;2022-12-29T12:16:02;99847.66;;;9.93;100.00
17855;BME280;9053;53.358;6.382;2022-12-29T12:18:41;99839.78;;;9.93;100.00
17855;BME280;9053;53.358;6.382;2022-12-29T12:21:26;99837.13;;;9.92;100.00
17855;BME280;9053;53.358;6.382;2022-12-29T12:27:02;99870.38;;;9.91;100.00
17855;BME280;9053;53.358;6.382;2022-12-29T12:29:38;99866.88;;;9.92;100.00
17855;BME280;9053;53.358;6.382;2022-12-29T12:32:16;99872.25;;;9.95;100.00
17855;BME280;9053;53.358;6.382;2022-12-29T12:34:47;99885.38;;;9.97;100.00
17855;BME280;9053;53.358;6.382;2022-12-29T12:37:27;99876.56;;;9.95;100.00
17855;BME280;9053;53.358;6.382;2022-12-29T12:40:13;99895.88;;;9.95;100.00
17855;BME280;9053;53.358;6.382;2022-12-29T12:42:57;99890.56;;;9.94;100.00
17855;BME280;9053;53.358;6.382;2022-12-29T12:45:42;99888.78;;;9.91;100.00
17855;BME280;9053;53.358;6.382;2022-12-29T12:48:41;99904.53;;;9.91;100.00
17855;BME280;9053;53.358;6.382;2022-12-29T12:51:20;99897.53;;;9.92;100.00
17855;BME280;9053;53.358;6.382;2022-12-29T12:54:05;99905.47;;;9.95;100.00
17855;BME280;9053;53.358;6.382;2022-12-29T12:56:47;99904.63;;;9.97;100.00
17855;BME280;9053;53.358;6.382;2022-12-29T12:59:32;99906.44;;;9.99;100.00
17855;BME280;9053;53.358;6.382;2022-12-29T13:02:20;99918.75;;;10.01;100.00
17855;BME280;9053;53.358;6.382;2022-12-29T13:05:09;99922.25;;;10.02;100.00
17855;BME280;9053;53.358;6.382;2022-12-29T13:08:01;99921.38;;;10.03;100.00
17855;BME280;9053;53.358;6.382;2022-12-29T13:10:41;99924.06;;;10.04;100.00
17855;BME280;9053;53.358;6.382;2022-12-29T13:16:22;99929.47;;;10.12;100.00
17855;BME280;9053;53.358;6.382;2022-12-29T13:18:59;99936.53;;;10.14;100.00
17855;BME280;9053;53.358;6.382;2022-12-29T13:21:52;99938.34;;;10.17;100.00
17855;BME280;9053;53.358;6.382;2022-12-29T13:24:43;99941.84;;;10.17;100.00
17855;BME280;9053;53.358;6.382;2022-12-29T13:27:20;99939.25;;;10.19;100.00
17855;BME280;9053;53.358;6.382;2022-12-29T13:29:59;99944.50;;;10.19;100.00
17855;BME280;9053;53.358;6.382;2022-12-29T13:32:41;99943.63;;;10.18;100.00
17855;BME280;9053;53.358;6.382;2022-12-29T13:35:24;99944.47;;;10.16;100.00
17855;BME280;9053;53.358;6.382;2022-12-29T13:38:00;99951.38;;;10.12;100.00
17855;BME280;9053;53.358;6.382;2022-12-29T13:40:34;99961.00;;;10.12;100.00
17855;BME280;9053;53.358;6.382;2022-12-29T13:43:06;99962.69;;;10.10;100.00
17855;BME280;9053;53.358;6.382;2022-12-29T13:45:36;99954.72;;;10.05;100.00
17855;BME280;9053;53.358;6.382;2022-12-29T13:48:13;99962.53;;;10.01;100.00
17855;BME280;9053;53.358;6.382;2022-12-29T13:50:50;99971.22;;;9.98;100.00
17855;BME280;9053;53.358;6.382;2022-12-29T13:53:34;99971.94;;;9.92;100.00
17855;BME280;9053;53.358;6.382;2022-12-29T13:56:11;99986.75;;;9.89;100.00
17855;BME280;9053;53.358;6.382;2022-12-29T13:58:49;99978.78;;;9.84;100.00
17855;BME280;9053;53.358;6.382;2022-12-29T14:01:26;99990.97;;;9.81;100.00